sensor_id;sensor_type;location;lat;lon;timestamp;P1;durP1;ratioP1;P2;durP2;ratioP2
3895;SDS011;1963;48.804;8.358;2022-12-16T00:01:33;38.93;;;18.60;;
3895;SDS011;1963;48.804;8.358;2022-12-16T00:04:01;38.20;;;21.20;;
3895;SDS011;1963;48.804;8.358;2022-12-16T00:06:30;38.80;;;19.10;;
3895;SDS011;1963;48.804;8.358;2022-12-16T00:09:01;40.27;;;19.87;;
3895;SDS011;1963;48.804;8.358;2022-12-16T00:11:29;34.33;;;18.03;;
3895;SDS011;1963;48.804;8.358;2022-12-16T00:13:57;36.53;;;18.90;;
3895;SDS011;1963;48.804;8.358;2022-12-16T00:16:26;39.60;;;20.00;;
3895;SDS011;1963;48.804;8.358;2022-12-16T00:18:54;33.83;;;18.67;;
3895;SDS011;1963;48.804;8.358;2022-12-16T00:21:22;42.57;;;21.50;;
3895;SDS011;1963;48.804;8.358;2022-12-16T00:23:53;39.10;;;19.90;;
3895;SDS011;1963;48.804;8.358;2022-12-16T00:26:23;38.30;;;19.93;;
3895;SDS011;1963;48.804;8.358;2022-12-16T00:28:51;35.00;;;19.80;;
3895;SDS011;1963;48.804;8.358;2022-12-16T00:31:20;39.70;;;19.70;;
3895;SDS011;1963;48.804;8.358;2022-12-16T00:33:48;39.63;;;19.80;;
3895;SDS011;1963;48.804;8.358;2022-12-16T00:36:18;40.30;;;20.93;;
3895;SDS011;1963;48.804;8.358;2022-12-16T00:38:45;41.63;;;20.07;;
3895;SDS011;1963;48.804;8.358;2022-12-16T00:41:13;41.70;;;20.23;;
3895;SDS011;1963;48.804;8.358;2022-12-16T00:43:43;35.07;;;17.43;;
3895;SDS011;1963;48.804;8.358;2022-12-16T00:46:10;36.17;;;19.50;;
3895;SDS011;1963;48.804;8.358;2022-12-16T00:48:38;35.47;;;19.47;;
3895;SDS011;1963;48.804;8.358;2022-12-16T00:51:06;40.80;;;19.83;;
3895;SDS011;1963;48.804;8.358;2022-12-16T00:53:34;42.03;;;19.77;;
3895;SDS011;1963;48.804;8.358;2022-12-16T03:40:35;23.87;;;12.17;;
3895;SDS011;1963;48.804;8.358;2022-12-16T03:43:05;23.13;;;12.47;;
3895;SDS011;1963;48.804;8.358;2022-12-16T03:45:35;32.50;;;15.57;;
3895;SDS011;1963;48.804;8.358;2022-12-16T03:48:05;28.37;;;14.80;;
3895;SDS011;1963;48.804;8.358;2022-12-16T03:50:35;29.93;;;16.80;;
3895;SDS011;1963;48.804;8.358;2022-12-16T03:53:04;33.43;;;16.53;;
3895;SDS011;1963;48.804;8.358;2022-12-16T03:55:35;27.50;;;14.67;;
3895;SDS011;1963;48.804;8.358;2022-12-16T03:58:03;32.40;;;17.60;;
3895;SDS011;1963;48.804;8.358;2022-12-16T04:00:30;31.40;;;17.00;;
3895;SDS011;1963;48.804;8.358;2022-12-16T04:02:58;36.17;;;18.63;;
3895;SDS011;1963;48.804;8.358;2022-12-16T04:05:27;31.13;;;17.23;;
3895;SDS011;1963;48.804;8.358;2022-12-16T04:07:55;41.43;;;19.07;;
3895;SDS011;1963;48.804;8.358;2022-12-16T04:10:27;36.80;;;17.77;;
3895;SDS011;1963;48.804;8.358;2022-12-16T04:13:14;31.30;;;16.10;;
3895;SDS011;1963;48.804;8.358;2022-12-16T04:16:00;35.13;;;17.90;;
3895;SDS011;1963;48.804;8.358;2022-12-16T04:18:45;30.73;;;16.70;;
3895;SDS011;1963;48.804;8.358;2022-12-16T04:21:32;36.37;;;18.17;;
3895;SDS011;1963;48.804;8.358;2022-12-16T04:24:18;33.73;;;17.37;;
3895;SDS011;1963;48.804;8.358;2022-12-16T04:26:49;32.70;;;18.50;;
3895;SDS011;1963;48.804;8.358;2022-12-16T04:29:42;35.50;;;16.63;;
3895;SDS011;1963;48.804;8.358;2022-12-16T04:32:28;37.63;;;18.30;;
3895;SDS011;1963;48.804;8.358;2022-12-16T04:35:17;31.57;;;18.70;;
3895;SDS011;1963;48.804;8.358;2022-12-16T04:38:03;34.87;;;18.90;;
3895;SDS011;1963;48.804;8.358;2022-12-16T04:40:48;36.77;;;17.83;;
3895;SDS011;1963;48.804;8.358;2022-12-16T04:43:34;38.93;;;19.20;;
3895;SDS011;1963;48.804;8.358;2022-12-16T04:46:21;30.40;;;19.00;;
3895;SDS011;1963;48.804;8.358;2022-12-16T04:49:07;39.40;;;19.30;;
3895;SDS011;1963;48.804;8.358;2022-12-16T04:51:53;41.87;;;17.83;;
3895;SDS011;1963;48.804;8.358;2022-12-16T04:54:38;36.07;;;19.10;;
3895;SDS011;1963;48.804;8.358;2022-12-16T04:57:24;39.83;;;20.07;;
3895;SDS011;1963;48.804;8.358;2022-12-16T05:00:10;46.77;;;21.87;;
3895;SDS011;1963;48.804;8.358;2022-12-16T05:02:57;45.00;;;20.00;;
3895;SDS011;1963;48.804;8.358;2022-12-16T05:05:44;39.20;;;19.00;;
3895;SDS011;1963;48.804;8.358;2022-12-16T05:08:29;34.50;;;16.73;;
3895;SDS011;1963;48.804;8.358;2022-12-16T05:11:15;38.30;;;19.80;;
3895;SDS011;1963;48.804;8.358;2022-12-16T05:14:00;35.93;;;20.10;;
3895;SDS011;1963;48.804;8.358;2022-12-16T05:16:46;34.00;;;19.27;;
3895;SDS011;1963;48.804;8.358;2022-12-16T05:19:33;36.13;;;18.07;;
3895;SDS011;1963;48.804;8.358;2022-12-16T05:22:18;31.67;;;15.73;;
3895;SDS011;1963;48.804;8.358;2022-12-16T05:25:04;34.10;;;16.87;;
3895;SDS011;1963;48.804;8.358;2022-12-16T05:27:51;36.93;;;18.00;;
3895;SDS011;1963;48.804;8.358;2022-12-16T05:30:37;38.27;;;17.57;;
3895;SDS011;1963;48.804;8.358;2022-12-16T05:33:22;36.47;;;16.70;;
3895;SDS011;1963;48.804;8.358;2022-12-16T05:36:09;33.10;;;15.70;;
3895;SDS011;1963;48.804;8.358;2022-12-16T05:38:54;30.07;;;15.03;;
3895;SDS011;1963;48.804;8.358;2022-12-16T05:41:39;32.43;;;15.80;;
3895;SDS011;1963;48.804;8.358;2022-12-16T05:44:25;35.97;;;17.30;;
3895;SDS011;1963;48.804;8.358;2022-12-16T05:47:10;36.60;;;16.43;;
3895;SDS011;1963;48.804;8.358;2022-12-16T05:49:56;34.27;;;17.20;;
3895;SDS011;1963;48.804;8.358;2022-12-16T05:52:48;33.47;;;16.00;;
3895;SDS011;1963;48.804;8.358;2022-12-16T05:55:34;31.43;;;17.73;;
3895;SDS011;1963;48.804;8.358;2022-12-16T05:58:19;31.73;;;16.47;;
3895;SDS011;1963;48.804;8.358;2022-12-16T06:01:05;25.63;;;15.07;;
3895;SDS011;1963;48.804;8.358;2022-12-16T06:03:50;32.20;;;15.20;;
3895;SDS011;1963;48.804;8.358;2022-12-16T06:06:42;33.70;;;15.73;;
3895;SDS011;1963;48.804;8.358;2022-12-16T06:09:29;30.07;;;15.90;;
3895;SDS011;1963;48.804;8.358;2022-12-16T06:12:26;32.73;;;16.07;;
3895;SDS011;1963;48.804;8.358;2022-12-16T06:15:13;30.97;;;15.37;;
3895;SDS011;1963;48.804;8.358;2022-12-16T06:21:35;23.93;;;13.40;;
3895;SDS011;1963;48.804;8.358;2022-12-16T06:24:20;30.10;;;14.97;;
3895;SDS011;1963;48.804;8.358;2022-12-16T06:27:07;29.60;;;16.30;;
3895;SDS011;1963;48.804;8.358;2022-12-16T06:30:08;30.00;;;14.93;;
3895;SDS011;1963;48.804;8.358;2022-12-16T06:39:51;30.00;;;15.03;;
3895;SDS011;1963;48.804;8.358;2022-12-16T06:42:40;25.40;;;14.27;;
3895;SDS011;1963;48.804;8.358;2022-12-16T06:45:26;29.27;;;14.40;;
3895;SDS011;1963;48.804;8.358;2022-12-16T06:48:25;31.77;;;15.57;;
3895;SDS011;1963;48.804;8.358;2022-12-16T06:51:11;26.27;;;13.53;;
3895;SDS011;1963;48.804;8.358;2022-12-16T21:29:14;12.80;;;7.10;;
3895;SDS011;1963;48.804;8.358;2022-12-16T21:32:03;11.20;;;6.13;;
3895;SDS011;1963;48.804;8.358;2022-12-16T21:34:50;13.40;;;7.13;;
3895;SDS011;1963;48.804;8.358;2022-12-16T21:37:36;14.63;;;7.63;;
3895;SDS011;1963;48.804;8.358;2022-12-16T21:40:22;14.63;;;7.37;;
3895;SDS011;1963;48.804;8.358;2022-12-16T21:43:14;11.90;;;6.60;;
3895;SDS011;1963;48.804;8.358;2022-12-16T21:46:01;15.53;;;7.73;;
3895;SDS011;1963;48.804;8.358;2022-12-16T21:48:48;15.07;;;7.23;;
3895;SDS011;1963;48.804;8.358;2022-12-16T21:51:36;14.90;;;7.57;;
3895;SDS011;1963;48.804;8.358;2022-12-16T21:54:21;14.80;;;7.53;;
3895;SDS011;1963;48.804;8.358;2022-12-16T21:57:09;17.40;;;9.63;;
3895;SDS011;1963;48.804;8.358;2022-12-16T21:59:55;20.10;;;7.77;;
3895;SDS011;1963;48.804;8.358;2022-12-16T22:02:46;12.67;;;7.50;;
3895;SDS011;1963;48.804;8.358;2022-12-16T22:05:33;18.40;;;8.20;;
3895;SDS011;1963;48.804;8.358;2022-12-16T22:08:22;19.67;;;8.80;;
3895;SDS011;1963;48.804;8.358;2022-12-16T22:11:08;19.00;;;7.70;;
3895;SDS011;1963;48.804;8.358;2022-12-16T22:13:54;19.00;;;9.20;;
3895;SDS011;1963;48.804;8.358;2022-12-16T22:16:39;17.30;;;8.03;;
3895;SDS011;1963;48.804;8.358;2022-12-16T22:19:27;24.30;;;10.17;;
3895;SDS011;1963;48.804;8.358;2022-12-16T22:22:23;19.30;;;9.10;;
3895;SDS011;1963;48.804;8.358;2022-12-16T22:25:24;29.37;;;13.97;;
3895;SDS011;1963;48.804;8.358;2022-12-16T22:28:18;19.20;;;10.30;;
3895;SDS011;1963;48.804;8.358;2022-12-16T22:31:07;18.40;;;8.53;;
3895;SDS011;1963;48.804;8.358;2022-12-16T22:33:55;15.73;;;7.47;;
3895;SDS011;1963;48.804;8.358;2022-12-16T22:36:49;19.10;;;7.77;;
3895;SDS011;1963;48.804;8.358;2022-12-16T22:39:45;21.23;;;7.90;;
3895;SDS011;1963;48.804;8.358;2022-12-16T22:42:36;18.60;;;8.10;;
3895;SDS011;1963;48.804;8.358;2022-12-16T22:45:32;15.97;;;8.00;;
3895;SDS011;1963;48.804;8.358;2022-12-16T22:48:40;22.57;;;9.13;;
3895;SDS011;1963;48.804;8.358;2022-12-16T22:51:25;14.33;;;8.03;;
3895;SDS011;1963;48.804;8.358;2022-12-16T22:54:18;14.90;;;8.13;;
3895;SDS011;1963;48.804;8.358;2022-12-16T22:57:15;16.90;;;8.47;;
3895;SDS011;1963;48.804;8.358;2022-12-16T23:00:06;14.53;;;6.97;;
3895;SDS011;1963;48.804;8.358;2022-12-16T23:03:01;17.87;;;8.10;;
3895;SDS011;1963;48.804;8.358;2022-12-16T23:05:47;14.97;;;8.17;;
3895;SDS011;1963;48.804;8.358;2022-12-16T23:08:33;14.60;;;7.10;;
3895;SDS011;1963;48.804;8.358;2022-12-16T23:11:21;22.73;;;8.50;;
3895;SDS011;1963;48.804;8.358;2022-12-16T23:14:09;15.63;;;7.37;;
3895;SDS011;1963;48.804;8.358;2022-12-16T23:16:58;14.60;;;7.80;;
3895;SDS011;1963;48.804;8.358;2022-12-16T23:19:44;14.90;;;7.53;;
3895;SDS011;1963;48.804;8.358;2022-12-16T23:22:29;14.67;;;6.90;;
3895;SDS011;1963;48.804;8.358;2022-12-16T23:25:15;15.17;;;7.97;;
3895;SDS011;1963;48.804;8.358;2022-12-16T23:28:02;17.50;;;7.10;;
3895;SDS011;1963;48.804;8.358;2022-12-16T23:30:57;15.90;;;7.83;;
3895;SDS011;1963;48.804;8.358;2022-12-16T23:33:44;18.97;;;8.30;;
3895;SDS011;1963;48.804;8.358;2022-12-16T23:36:30;16.00;;;7.47;;
3895;SDS011;1963;48.804;8.358;2022-12-16T23:39:18;16.03;;;7.43;;
3895;SDS011;1963;48.804;8.358;2022-12-16T23:42:06;16.80;;;7.17;;
3895;SDS011;1963;48.804;8.358;2022-12-16T23:44:58;15.33;;;7.30;;
3895;SDS011;1963;48.804;8.358;2022-12-16T23:47:48;19.50;;;7.83;;
3895;SDS011;1963;48.804;8.358;2022-12-16T23:50:35;15.90;;;7.83;;
3895;SDS011;1963;48.804;8.358;2022-12-16T23:53:24;16.43;;;8.53;;
3895;SDS011;1963;48.804;8.358;2022-12-16T23:56:12;16.23;;;7.50;;
3895;SDS011;1963;48.804;8.358;2022-12-16T23:58:57;16.70;;;7.77;;
